sensor_id;sensor_type;location;lat;lon;timestamp;pressure;altitude;pressure_sealevel;temperature;humidity
21011;BME280;10663;42.714;23.274;2023-03-31T00:00:11;94755.28;;;10.57;49.64
21011;BME280;10663;42.714;23.274;2023-03-31T00:01:42;94748.69;;;10.55;50.15
21011;BME280;10663;42.714;23.274;2023-03-31T00:03:13;94751.34;;;10.70;49.75
21011;BME280;10663;42.714;23.274;2023-03-31T00:04:51;94752.13;;;10.65;50.35
21011;BME280;10663;42.714;23.274;2023-03-31T00:06:22;94752.41;;;10.64;50.55
21011;BME280;10663;42.714;23.274;2023-03-31T00:07:55;94751.34;;;10.60;50.43
21011;BME280;10663;42.714;23.274;2023-03-31T00:09:32;94748.13;;;10.42;50.92
21011;BME280;10663;42.714;23.274;2023-03-31T00:11:06;94744.44;;;10.48;50.95
21011;BME280;10663;42.714;23.274;2023-03-31T00:12:37;94741.53;;;10.45;50.82
21011;BME280;10663;42.714;23.274;2023-03-31T00:14:08;94748.91;;;10.33;51.30
21011;BME280;10663;42.714;23.274;2023-03-31T00:15:39;94750.50;;;10.34;51.51
21011;BME280;10663;42.714;23.274;2023-03-31T00:17:10;94738.84;;;10.25;51.71
21011;BME280;10663;42.714;23.274;2023-03-31T00:18:41;94745.75;;;10.36;51.88
21011;BME280;10663;42.714;23.274;2023-03-31T00:20:16;94743.13;;;10.46;51.46
21011;BME280;10663;42.714;23.274;2023-03-31T00:21:47;94744.41;;;10.33;51.61
21011;BME280;10663;42.714;23.274;2023-03-31T00:23:19;94741.50;;;10.40;51.38
21011;BME280;10663;42.714;23.274;2023-03-31T00:24:57;94737.81;;;10.41;52.20
21011;BME280;10663;42.714;23.274;2023-03-31T00:26:28;94739.41;;;10.42;51.61
21011;BME280;10663;42.714;23.274;2023-03-31T00:28:00;94734.38;;;10.50;51.41
21011;BME280;10663;42.714;23.274;2023-03-31T00:29:31;94748.13;;;10.47;50.76
21011;BME280;10663;42.714;23.274;2023-03-31T00:31:03;94744.44;;;10.48;50.99
21011;BME280;10663;42.714;23.274;2023-03-31T00:32:34;94738.06;;;10.49;51.83
21011;BME280;10663;42.714;23.274;2023-03-31T00:34:06;94737.56;;;10.53;51.63
21011;BME280;10663;42.714;23.274;2023-03-31T00:35:37;94737.81;;;10.36;51.31
21011;BME280;10663;42.714;23.274;2023-03-31T00:37:09;94730.94;;;10.45;51.27
21011;BME280;10663;42.714;23.274;2023-03-31T00:38:48;94741.00;;;10.58;50.99
21011;BME280;10663;42.714;23.274;2023-03-31T00:40:21;94716.13;;;10.59;50.70
21011;BME280;10663;42.714;23.274;2023-03-31T00:41:52;94733.88;;;10.54;51.31
21011;BME280;10663;42.714;23.274;2023-03-31T00:43:27;94730.16;;;10.44;52.60
21011;BME280;10663;42.714;23.274;2023-03-31T00:45:21;94730.88;;;10.30;51.52
21011;BME280;10663;42.714;23.274;2023-03-31T00:46:56;94729.88;;;10.46;51.18
21011;BME280;10663;42.714;23.274;2023-03-31T00:48:28;94728.28;;;10.50;51.37
21011;BME280;10663;42.714;23.274;2023-03-31T00:49:59;94720.88;;;10.37;50.91
21011;BME280;10663;42.714;23.274;2023-03-31T00:51:32;94723.50;;;10.47;50.99
21011;BME280;10663;42.714;23.274;2023-03-31T00:53:10;94720.59;;;10.43;52.03
21011;BME280;10663;42.714;23.274;2023-03-31T00:54:44;94711.56;;;10.29;51.27
21011;BME280;10663;42.714;23.274;2023-03-31T00:56:16;94712.94;;;10.37;51.50
21011;BME280;10663;42.714;23.274;2023-03-31T00:57:47;94715.56;;;10.37;51.77
21011;BME280;10663;42.714;23.274;2023-03-31T00:59:18;94715.56;;;10.37;51.79
21011;BME280;10663;42.714;23.274;2023-03-31T01:00:50;94711.81;;;10.23;52.17
21011;BME280;10663;42.714;23.274;2023-03-31T01:02:22;94710.66;;;9.93;52.40
21011;BME280;10663;42.714;23.274;2023-03-31T01:03:56;94708.88;;;10.14;52.03
21011;BME280;10663;42.714;23.274;2023-03-31T01:05:33;94704.44;;;10.30;51.85
21011;BME280;10663;42.714;23.274;2023-03-31T01:07:12;94711.81;;;10.23;51.50
21011;BME280;10663;42.714;23.274;2023-03-31T01:08:48;94698.06;;;10.31;51.22
21011;BME280;10663;42.714;23.274;2023-03-31T01:10:20;94700.47;;;10.32;51.36
21011;BME280;10663;42.714;23.274;2023-03-31T01:11:52;94701.53;;;10.36;51.43
21011;BME280;10663;42.714;23.274;2023-03-31T01:13:24;94706.47;;;10.12;51.37
21011;BME280;10663;42.714;23.274;2023-03-31T01:14:56;94701.97;;;10.13;52.13
21011;BME280;10663;42.714;23.274;2023-03-31T01:16:27;94698.34;;;10.19;52.00
21011;BME280;10663;42.714;23.274;2023-03-31T01:17:58;94703.91;;;10.28;51.90
21011;BME280;10663;42.714;23.274;2023-03-31T01:24:25;94719.25;;;10.31;52.58
21011;BME280;10663;42.714;23.274;2023-03-31T01:28:57;94710.78;;;10.39;52.43
21011;BME280;10663;42.714;23.274;2023-03-31T01:35:47;94719.75;;;10.23;52.16
21011;BME280;10663;42.714;23.274;2023-03-31T01:41:41;94721.06;;;10.20;52.46
21011;BME280;10663;42.714;23.274;2023-03-31T01:45:06;94724.22;;;10.17;53.33
21011;BME280;10663;42.714;23.274;2023-03-31T01:47:07;94721.84;;;10.10;52.85
21011;BME280;10663;42.714;23.274;2023-03-31T01:52:23;94730.09;;;10.29;52.07
21011;BME280;10663;42.714;23.274;2023-03-31T01:55:54;94741.53;;;10.45;53.31
21011;BME280;10663;42.714;23.274;2023-03-31T01:57:38;94735.38;;;10.29;53.51
21011;BME280;10663;42.714;23.274;2023-03-31T01:59:16;94736.47;;;10.48;50.40
21011;BME280;10663;42.714;23.274;2023-03-31T02:00:56;94736.47;;;10.48;52.56
21011;BME280;10663;42.714;23.274;2023-03-31T02:02:35;94736.78;;;10.52;52.83
21011;BME280;10663;42.714;23.274;2023-03-31T02:04:17;94735.66;;;10.23;52.14
21011;BME280;10663;42.714;23.274;2023-03-31T02:05:54;94740.19;;;10.58;50.39
21011;BME280;10663;42.714;23.274;2023-03-31T02:07:32;94747.63;;;10.50;52.66
21011;BME280;10663;42.714;23.274;2023-03-31T02:09:09;94752.91;;;10.45;52.48
21011;BME280;10663;42.714;23.274;2023-03-31T02:10:44;94750.00;;;10.57;52.30
21011;BME280;10663;42.714;23.274;2023-03-31T02:12:18;94742.59;;;10.44;52.61
21011;BME280;10663;42.714;23.274;2023-03-31T02:13:53;94755.81;;;10.49;52.65
21011;BME280;10663;42.714;23.274;2023-03-31T02:15:32;94752.38;;;10.48;53.04
21011;BME280;10663;42.714;23.274;2023-03-31T02:17:04;94755.59;;;10.56;52.73
21011;BME280;10663;42.714;23.274;2023-03-31T02:18:38;94759.78;;;10.57;50.91
21011;BME280;10663;42.714;23.274;2023-03-31T02:20:14;94754.78;;;10.85;49.20
21011;BME280;10663;42.714;23.274;2023-03-31T02:21:48;94767.53;;;10.99;49.07
21011;BME280;10663;42.714;23.274;2023-03-31T02:23:23;94763.81;;;10.90;51.29
21011;BME280;10663;42.714;23.274;2023-03-31T02:24:57;94775.19;;;10.95;49.42
21011;BME280;10663;42.714;23.274;2023-03-31T02:26:36;94777.59;;;11.12;51.00
21011;BME280;10663;42.714;23.274;2023-03-31T02:28:12;94795.59;;;11.20;52.81
21011;BME280;10663;42.714;23.274;2023-03-31T02:29:47;94789.00;;;11.28;53.10
21011;BME280;10663;42.714;23.274;2023-03-31T02:33:01;94789.00;;;11.38;56.99
21011;BME280;10663;42.714;23.274;2023-03-31T02:34:35;94782.34;;;11.25;57.05
21011;BME280;10663;42.714;23.274;2023-03-31T02:36:06;94783.94;;;11.16;56.95
21011;BME280;10663;42.714;23.274;2023-03-31T02:37:39;94801.19;;;11.13;58.57
21011;BME280;10663;42.714;23.274;2023-03-31T02:39:14;94796.66;;;10.94;59.27
21011;BME280;10663;42.714;23.274;2023-03-31T02:40:46;94786.06;;;10.73;60.60
21011;BME280;10663;42.714;23.274;2023-03-31T02:42:18;94797.91;;;10.45;65.62
21011;BME280;10663;42.714;23.274;2023-03-31T02:43:49;94790.59;;;10.05;73.67
21011;BME280;10663;42.714;23.274;2023-03-31T02:45:52;94795.47;;;9.76;78.40
21011;BME280;10663;42.714;23.274;2023-03-31T02:47:23;94799.09;;;9.55;78.92
21011;BME280;10663;42.714;23.274;2023-03-31T02:49:00;94783.56;;;9.69;77.39
21011;BME280;10663;42.714;23.274;2023-03-31T02:52:33;94768.50;;;9.74;79.10
21011;BME280;10663;42.714;23.274;2023-03-31T02:56:01;94764.56;;;9.77;78.86
21011;BME280;10663;42.714;23.274;2023-03-31T03:16:36;94722.41;;;10.23;78.77
21011;BME280;10663;42.714;23.274;2023-03-31T03:18:09;94724.03;;;10.34;79.71
21011;BME280;10663;42.714;23.274;2023-03-31T03:19:41;94728.00;;;10.31;76.30
21011;BME280;10663;42.714;23.274;2023-03-31T03:21:12;94725.84;;;10.23;70.34
21011;BME280;10663;42.714;23.274;2023-03-31T03:22:43;94722.41;;;10.23;72.21
21011;BME280;10663;42.714;23.274;2023-03-31T03:24:14;94728.50;;;10.18;74.74
21011;BME280;10663;42.714;23.274;2023-03-31T03:25:47;94729.00;;;10.20;74.55
21011;BME280;10663;42.714;23.274;2023-03-31T03:27:19;94720.56;;;10.23;70.91
21011;BME280;10663;42.714;23.274;2023-03-31T03:28:55;94721.38;;;10.34;73.27
21011;BME280;10663;42.714;23.274;2023-03-31T03:30:26;94724.03;;;10.39;73.39
21011;BME280;10663;42.714;23.274;2023-03-31T03:31:57;94724.56;;;10.41;71.46
21011;BME280;10663;42.714;23.274;2023-03-31T03:33:28;94710.53;;;10.40;70.07
21011;BME280;10663;42.714;23.274;2023-03-31T03:35:00;94724.84;;;10.44;75.78
21011;BME280;10663;42.714;23.274;2023-03-31T03:36:31;94722.19;;;10.49;74.67
21011;BME280;10663;42.714;23.274;2023-03-31T03:38:02;94719.81;;;10.48;72.06
21011;BME280;10663;42.714;23.274;2023-03-31T03:39:33;94721.16;;;10.45;71.08
21011;BME280;10663;42.714;23.274;2023-03-31T03:41:04;94718.00;;;10.64;68.95
21011;BME280;10663;42.714;23.274;2023-03-31T03:42:35;94714.53;;;10.68;65.32
21011;BME280;10663;42.714;23.274;2023-03-31T03:44:08;94714.25;;;10.75;67.54
21011;BME280;10663;42.714;23.274;2023-03-31T03:45:38;94710.81;;;10.74;64.48
21011;BME280;10663;42.714;23.274;2023-03-31T03:47:09;94711.91;;;10.73;66.58
21011;BME280;10663;42.714;23.274;2023-03-31T03:48:40;94704.47;;;10.65;65.27
21011;BME280;10663;42.714;23.274;2023-03-31T03:50:11;94705.78;;;10.53;67.35
21011;BME280;10663;42.714;23.274;2023-03-31T03:51:43;94705.78;;;10.47;69.21
21011;BME280;10663;42.714;23.274;2023-03-31T03:53:14;94712.38;;;10.35;67.58
21011;BME280;10663;42.714;23.274;2023-03-31T03:54:45;94714.75;;;10.31;67.35
21011;BME280;10663;42.714;23.274;2023-03-31T03:56:16;94714.22;;;10.29;67.74
21011;BME280;10663;42.714;23.274;2023-03-31T03:57:47;94714.22;;;10.29;67.80
21011;BME280;10663;42.714;23.274;2023-03-31T03:59:18;94718.41;;;10.15;68.88
21011;BME280;10663;42.714;23.274;2023-03-31T04:00:49;94719.78;;;10.28;68.99
21011;BME280;10663;42.714;23.274;2023-03-31T04:02:20;94722.97;;;10.35;68.33
21011;BME280;10663;42.714;23.274;2023-03-31T04:03:51;94720.88;;;10.37;69.74
21011;BME280;10663;42.714;23.274;2023-03-31T04:05:22;94720.59;;;10.28;69.42
21011;BME280;10663;42.714;23.274;2023-03-31T04:06:52;94728.25;;;10.40;69.59
21011;BME280;10663;42.714;23.274;2023-03-31T04:08:23;94721.13;;;10.35;69.94
21011;BME280;10663;42.714;23.274;2023-03-31T04:09:54;94722.44;;;10.33;71.04
21011;BME280;10663;42.714;23.274;2023-03-31T04:11:25;94719.00;;;10.32;69.16
21011;BME280;10663;42.714;23.274;2023-03-31T04:12:56;94728.28;;;10.35;70.02
21011;BME280;10663;42.714;23.274;2023-03-31T04:14:27;94729.84;;;10.31;69.96
21011;BME280;10663;42.714;23.274;2023-03-31T04:15:58;94716.59;;;10.26;69.96
21011;BME280;10663;42.714;23.274;2023-03-31T04:17:28;94721.03;;;10.15;69.67
21011;BME280;10663;42.714;23.274;2023-03-31T04:19:04;94718.19;;;10.22;69.49
21011;BME280;10663;42.714;23.274;2023-03-31T04:20:37;94727.16;;;10.21;69.04
21011;BME280;10663;42.714;23.274;2023-03-31T04:22:08;94722.97;;;10.35;68.92
21011;BME280;10663;42.714;23.274;2023-03-31T04:23:41;94714.75;;;10.26;68.24
21011;BME280;10663;42.714;23.274;2023-03-31T04:25:16;94713.44;;;10.29;68.61
21011;BME280;10663;42.714;23.274;2023-03-31T04:26:47;94718.75;;;10.34;68.62
21011;BME280;10663;42.714;23.274;2023-03-31T04:28:20;94718.19;;;10.32;68.50
21011;BME280;10663;42.714;23.274;2023-03-31T04:29:51;94720.31;;;10.25;68.23
21011;BME280;10663;42.714;23.274;2023-03-31T04:31:24;94720.81;;;10.22;68.53
21011;BME280;10663;42.714;23.274;2023-03-31T04:33:00;94718.47;;;10.25;67.89
21011;BME280;10663;42.714;23.274;2023-03-31T04:34:32;94724.03;;;10.39;68.41
21011;BME280;10663;42.714;23.274;2023-03-31T04:36:06;94713.19;;;10.40;68.27
21011;BME280;10663;42.714;23.274;2023-03-31T04:37:51;94704.19;;;10.41;67.07
21011;BME280;10663;42.714;23.274;2023-03-31T04:39:29;94704.72;;;10.43;67.40
21011;BME280;10663;42.714;23.274;2023-03-31T04:41:02;94714.22;;;10.29;68.91
21011;BME280;10663;42.714;23.274;2023-03-31T04:42:33;94707.13;;;10.45;68.29
21011;BME280;10663;42.714;23.274;2023-03-31T04:44:04;94708.41;;;10.47;68.35
21011;BME280;10663;42.714;23.274;2023-03-31T04:45:35;94703.41;;;10.56;68.41
21011;BME280;10663;42.714;23.274;2023-03-31T04:47:06;94702.06;;;10.43;68.60
21011;BME280;10663;42.714;23.274;2023-03-31T04:48:37;94697.56;;;10.39;68.58
21011;BME280;10663;42.714;23.274;2023-03-31T04:50:09;94698.38;;;10.60;67.51
21011;BME280;10663;42.714;23.274;2023-03-31T04:51:40;94693.34;;;10.78;67.27
21011;BME280;10663;42.714;23.274;2023-03-31T04:53:11;94691.50;;;10.89;66.29
21011;BME280;10663;42.714;23.274;2023-03-31T04:54:42;94690.69;;;10.99;65.32
21011;BME280;10663;42.714;23.274;2023-03-31T04:56:13;94680.63;;;11.01;64.74
21011;BME280;10663;42.714;23.274;2023-03-31T04:57:44;94693.03;;;11.15;64.24
21011;BME280;10663;42.714;23.274;2023-03-31T04:59:15;94690.13;;;11.27;63.33
21011;BME280;10663;42.714;23.274;2023-03-31T05:00:46;94685.84;;;11.31;62.22
21011;BME280;10663;42.714;23.274;2023-03-31T05:02:17;94679.97;;;11.49;62.12
21011;BME280;10663;42.714;23.274;2023-03-31T05:03:52;94680.00;;;11.44;61.07
21011;BME280;10663;42.714;23.274;2023-03-31T05:05:23;94673.84;;;11.59;59.17
21011;BME280;10663;42.714;23.274;2023-03-31T05:06:54;94674.84;;;11.68;59.21
21011;BME280;10663;42.714;23.274;2023-03-31T05:08:26;94665.59;;;11.60;58.97
21011;BME280;10663;42.714;23.274;2023-03-31T05:09:57;94674.53;;;11.90;58.94
21011;BME280;10663;42.714;23.274;2023-03-31T05:11:27;94668.44;;;11.84;57.12
21011;BME280;10663;42.714;23.274;2023-03-31T05:12:58;94673.97;;;11.93;56.32
21011;BME280;10663;42.714;23.274;2023-03-31T05:14:29;94668.63;;;12.03;55.32
21011;BME280;10663;42.714;23.274;2023-03-31T05:16:08;94674.91;;;12.17;55.19
21011;BME280;10663;42.714;23.274;2023-03-31T05:17:39;94668.28;;;12.15;54.21
21011;BME280;10663;42.714;23.274;2023-03-31T05:19:10;94669.81;;;12.26;53.65
21011;BME280;10663;42.714;23.274;2023-03-31T05:20:41;94673.00;;;12.28;53.61
21011;BME280;10663;42.714;23.274;2023-03-31T05:22:12;94665.00;;;12.33;52.80
21011;BME280;10663;42.714;23.274;2023-03-31T05:23:43;94661.59;;;12.27;52.61
21011;BME280;10663;42.714;23.274;2023-03-31T05:25:14;94658.81;;;12.43;51.62
21011;BME280;10663;42.714;23.274;2023-03-31T05:26:48;94674.59;;;12.29;51.26
21011;BME280;10663;42.714;23.274;2023-03-31T05:28:22;94659.03;;;12.51;50.45
21011;BME280;10663;42.714;23.274;2023-03-31T05:29:53;94666.66;;;12.58;49.89
21011;BME280;10663;42.714;23.274;2023-03-31T05:31:23;94660.47;;;12.67;50.20
21011;BME280;10663;42.714;23.274;2023-03-31T05:32:55;94659.34;;;12.79;49.83
21011;BME280;10663;42.714;23.274;2023-03-31T05:34:26;94665.09;;;12.86;49.96
21011;BME280;10663;42.714;23.274;2023-03-31T05:35:57;94661.53;;;12.66;49.73
21011;BME280;10663;42.714;23.274;2023-03-31T05:37:30;94655.06;;;12.83;49.82
21011;BME280;10663;42.714;23.274;2023-03-31T05:39:01;94665.44;;;12.79;49.10
21011;BME280;10663;42.714;23.274;2023-03-31T05:40:32;94650.94;;;12.95;48.78
21011;BME280;10663;42.714;23.274;2023-03-31T05:42:03;94646.78;;;12.84;48.34
21011;BME280;10663;42.714;23.274;2023-03-31T05:43:36;94653.25;;;13.02;48.42
21011;BME280;10663;42.714;23.274;2023-03-31T05:45:08;94653.69;;;13.19;47.93
21011;BME280;10663;42.714;23.274;2023-03-31T05:46:38;94651.13;;;13.33;47.92
21011;BME280;10663;42.714;23.274;2023-03-31T05:48:11;94651.22;;;13.70;47.10
21011;BME280;10663;42.714;23.274;2023-03-31T05:49:42;94652.69;;;13.81;46.86
21011;BME280;10663;42.714;23.274;2023-03-31T05:51:13;94660.44;;;13.78;46.36
21011;BME280;10663;42.714;23.274;2023-03-31T05:52:44;94669.09;;;13.89;47.06
21011;BME280;10663;42.714;23.274;2023-03-31T05:54:14;94666.69;;;13.44;47.74
21011;BME280;10663;42.714;23.274;2023-03-31T05:55:45;94668.09;;;13.61;47.77
21011;BME280;10663;42.714;23.274;2023-03-31T05:57:16;94663.75;;;13.46;48.39
21011;BME280;10663;42.714;23.274;2023-03-31T05:58:47;94664.38;;;13.62;48.53
21011;BME280;10663;42.714;23.274;2023-03-31T06:00:18;94666.81;;;13.82;48.59
21011;BME280;10663;42.714;23.274;2023-03-31T06:01:49;94673.19;;;13.33;48.52
21011;BME280;10663;42.714;23.274;2023-03-31T06:03:20;94671.13;;;13.54;48.97
21011;BME280;10663;42.714;23.274;2023-03-31T06:04:52;94669.63;;;13.67;48.76
21011;BME280;10663;42.714;23.274;2023-03-31T06:06:22;94668.22;;;13.51;48.82
21011;BME280;10663;42.714;23.274;2023-03-31T06:07:55;94672.28;;;13.67;48.95
21011;BME280;10663;42.714;23.274;2023-03-31T06:09:26;94676.03;;;13.42;49.39
21011;BME280;10663;42.714;23.274;2023-03-31T06:10:58;94680.56;;;13.65;48.55
21011;BME280;10663;42.714;23.274;2023-03-31T06:12:31;94670.50;;;13.62;48.84
21011;BME280;10663;42.714;23.274;2023-03-31T06:14:02;94675.06;;;13.80;48.53
21011;BME280;10663;42.714;23.274;2023-03-31T06:15:32;94674.81;;;14.01;47.89
21011;BME280;10663;42.714;23.274;2023-03-31T06:17:03;94673.16;;;14.05;48.15
21011;BME280;10663;42.714;23.274;2023-03-31T06:18:35;94669.38;;;13.87;48.15
21011;BME280;10663;42.714;23.274;2023-03-31T06:20:06;94673.09;;;14.10;48.01
21011;BME280;10663;42.714;23.274;2023-03-31T06:21:37;94661.72;;;14.23;47.45
21011;BME280;10663;42.714;23.274;2023-03-31T06:23:08;94669.78;;;13.99;46.98
21011;BME280;10663;42.714;23.274;2023-03-31T06:24:39;94662.78;;;14.03;46.73
21011;BME280;10663;42.714;23.274;2023-03-31T06:26:15;94668.84;;;13.66;47.26
21011;BME280;10663;42.714;23.274;2023-03-31T06:27:46;94665.72;;;13.83;46.63
21011;BME280;10663;42.714;23.274;2023-03-31T06:29:17;94667.16;;;13.94;46.81
21011;BME280;10663;42.714;23.274;2023-03-31T06:30:48;94674.72;;;13.87;46.41
21011;BME280;10663;42.714;23.274;2023-03-31T06:32:19;94676.56;;;13.86;46.64
21011;BME280;10663;42.714;23.274;2023-03-31T06:33:50;94670.78;;;14.03;46.70
21011;BME280;10663;42.714;23.274;2023-03-31T06:35:21;94679.41;;;14.14;46.73
21011;BME280;10663;42.714;23.274;2023-03-31T06:36:52;94671.41;;;13.95;46.38
21011;BME280;10663;42.714;23.274;2023-03-31T06:38:24;94667.72;;;13.72;47.09
21011;BME280;10663;42.714;23.274;2023-03-31T06:39:55;94662.50;;;14.23;45.55
21011;BME280;10663;42.714;23.274;2023-03-31T06:41:26;94658.06;;;14.19;45.68
21011;BME280;10663;42.714;23.274;2023-03-31T06:42:57;94668.72;;;14.19;45.47
21011;BME280;10663;42.714;23.274;2023-03-31T06:44:28;94663.81;;;14.26;45.83
21011;BME280;10663;42.714;23.274;2023-03-31T06:45:59;94675.88;;;14.00;46.18
21011;BME280;10663;42.714;23.274;2023-03-31T06:47:30;94672.22;;;14.14;46.13
21011;BME280;10663;42.714;23.274;2023-03-31T06:49:01;94673.91;;;14.29;45.52
21011;BME280;10663;42.714;23.274;2023-03-31T06:50:32;94676.09;;;14.03;46.59
21011;BME280;10663;42.714;23.274;2023-03-31T06:52:03;94683.78;;;13.86;46.35
21011;BME280;10663;42.714;23.274;2023-03-31T06:53:35;94681.34;;;13.90;46.97
21011;BME280;10663;42.714;23.274;2023-03-31T06:55:07;94682.38;;;14.12;46.39
21011;BME280;10663;42.714;23.274;2023-03-31T06:56:38;94674.03;;;14.00;46.72
21011;BME280;10663;42.714;23.274;2023-03-31T06:58:09;94671.28;;;14.05;46.33
21011;BME280;10663;42.714;23.274;2023-03-31T06:59:41;94673.31;;;14.13;46.87
21011;BME280;10663;42.714;23.274;2023-03-31T07:01:12;94660.34;;;14.07;46.26
21011;BME280;10663;42.714;23.274;2023-03-31T07:02:43;94654.22;;;14.06;46.63
21011;BME280;10663;42.714;23.274;2023-03-31T07:04:14;94650.88;;;14.19;46.90
21011;BME280;10663;42.714;23.274;2023-03-31T07:05:52;94632.28;;;14.33;45.83
21011;BME280;10663;42.714;23.274;2023-03-31T07:07:23;94632.50;;;14.37;46.32
21011;BME280;10663;42.714;23.274;2023-03-31T07:08:54;94619.84;;;14.47;46.11
21011;BME280;10663;42.714;23.274;2023-03-31T07:10:27;94617.31;;;14.37;46.09
21011;BME280;10663;42.714;23.274;2023-03-31T07:11:58;94625.75;;;14.44;46.21
21011;BME280;10663;42.714;23.274;2023-03-31T07:13:29;94618.88;;;14.57;46.46
21011;BME280;10663;42.714;23.274;2023-03-31T07:15:00;94614.97;;;14.68;45.95
21011;BME280;10663;42.714;23.274;2023-03-31T07:16:31;94597.88;;;14.55;45.32
21011;BME280;10663;42.714;23.274;2023-03-31T07:18:02;94596.63;;;14.80;45.37
21011;BME280;10663;42.714;23.274;2023-03-31T07:19:33;94600.50;;;14.74;45.79
21011;BME280;10663;42.714;23.274;2023-03-31T07:21:07;94599.69;;;14.74;46.10
21011;BME280;10663;42.714;23.274;2023-03-31T07:22:38;94599.31;;;14.94;45.75
21011;BME280;10663;42.714;23.274;2023-03-31T07:24:11;94597.59;;;14.71;45.92
21011;BME280;10663;42.714;23.274;2023-03-31T07:25:42;94599.75;;;15.01;45.36
21011;BME280;10663;42.714;23.274;2023-03-31T07:27:13;94608.91;;;14.95;45.69
21011;BME280;10663;42.714;23.274;2023-03-31T07:28:44;94596.41;;;15.23;45.68
21011;BME280;10663;42.714;23.274;2023-03-31T07:30:17;94620.13;;;14.78;46.86
21011;BME280;10663;42.714;23.274;2023-03-31T07:31:48;94619.09;;;14.93;46.30
21011;BME280;10663;42.714;23.274;2023-03-31T07:33:20;94606.28;;;14.76;47.12
21011;BME280;10663;42.714;23.274;2023-03-31T07:34:51;94600.22;;;14.89;46.43
21011;BME280;10663;42.714;23.274;2023-03-31T07:36:22;94610.19;;;14.97;46.80
21011;BME280;10663;42.714;23.274;2023-03-31T07:37:53;94606.53;;;14.93;46.34
21011;BME280;10663;42.714;23.274;2023-03-31T07:39:24;94594.59;;;14.91;46.42
21011;BME280;10663;42.714;23.274;2023-03-31T07:40:55;94596.19;;;15.06;46.07
21011;BME280;10663;42.714;23.274;2023-03-31T07:42:26;94597.19;;;15.10;46.12
21011;BME280;10663;42.714;23.274;2023-03-31T07:43:56;94609.28;;;14.88;46.78
21011;BME280;10663;42.714;23.274;2023-03-31T07:45:27;94603.13;;;15.20;46.99
21011;BME280;10663;42.714;23.274;2023-03-31T07:46:58;94605.28;;;15.18;45.77
21011;BME280;10663;42.714;23.274;2023-03-31T07:48:33;94604.41;;;15.37;45.27
21011;BME280;10663;42.714;23.274;2023-03-31T07:50:05;94611.41;;;15.32;45.06
21011;BME280;10663;42.714;23.274;2023-03-31T07:51:37;94618.31;;;15.06;45.14
21011;BME280;10663;42.714;23.274;2023-03-31T07:53:08;94616.03;;;15.13;45.16
21011;BME280;10663;42.714;23.274;2023-03-31T07:54:38;94608.31;;;14.98;45.29
21011;BME280;10663;42.714;23.274;2023-03-31T07:56:10;94623.88;;;15.10;45.03
21011;BME280;10663;42.714;23.274;2023-03-31T07:57:41;94614.97;;;15.01;45.21
21011;BME280;10663;42.714;23.274;2023-03-31T07:59:13;94613.88;;;15.15;45.27
21011;BME280;10663;42.714;23.274;2023-03-31T08:00:44;94616.66;;;14.78;45.62
21011;BME280;10663;42.714;23.274;2023-03-31T08:02:16;94608.03;;;15.13;44.35
21011;BME280;10663;42.714;23.274;2023-03-31T08:03:48;94604.06;;;14.97;44.84
21011;BME280;10663;42.714;23.274;2023-03-31T08:05:19;94605.44;;;14.94;44.59
21011;BME280;10663;42.714;23.274;2023-03-31T08:06:51;94590.97;;;15.01;44.84
21011;BME280;10663;42.714;23.274;2023-03-31T08:08:22;94600.44;;;15.34;44.04
21011;BME280;10663;42.714;23.274;2023-03-31T08:09:53;94577.03;;;15.45;43.72
21011;BME280;10663;42.714;23.274;2023-03-31T08:11:25;94598.19;;;15.41;43.86
21011;BME280;10663;42.714;23.274;2023-03-31T08:12:56;94583.56;;;15.25;44.28
21011;BME280;10663;42.714;23.274;2023-03-31T08:14:27;94594.53;;;15.10;44.12
21011;BME280;10663;42.714;23.274;2023-03-31T08:15:57;94605.44;;;14.94;44.00
21011;BME280;10663;42.714;23.274;2023-03-31T08:17:28;94589.50;;;14.76;45.40
21011;BME280;10663;42.714;23.274;2023-03-31T08:19:00;94590.63;;;14.88;44.61
21011;BME280;10663;42.714;23.274;2023-03-31T08:20:31;94587.63;;;14.76;44.86
21011;BME280;10663;42.714;23.274;2023-03-31T08:22:02;94581.63;;;14.84;44.72
21011;BME280;10663;42.714;23.274;2023-03-31T08:23:33;94590.63;;;14.88;44.49
21011;BME280;10663;42.714;23.274;2023-03-31T08:25:05;94594.78;;;14.81;44.75
21011;BME280;10663;42.714;23.274;2023-03-31T08:26:37;94589.47;;;15.08;44.34
21011;BME280;10663;42.714;23.274;2023-03-31T08:28:08;94588.88;;;14.97;44.69
21011;BME280;10663;42.714;23.274;2023-03-31T08:29:43;94595.59;;;15.22;44.31
21011;BME280;10663;42.714;23.274;2023-03-31T08:31:14;94591.47;;;15.16;44.35
21011;BME280;10663;42.714;23.274;2023-03-31T08:32:46;94583.16;;;15.45;43.53
21011;BME280;10663;42.714;23.274;2023-03-31T08:34:17;94587.31;;;15.51;43.30
21011;BME280;10663;42.714;23.274;2023-03-31T08:35:48;94581.66;;;15.53;43.86
21011;BME280;10663;42.714;23.274;2023-03-31T08:37:19;94578.03;;;15.62;43.15
21011;BME280;10663;42.714;23.274;2023-03-31T08:38:50;94591.22;;;15.95;43.17
21011;BME280;10663;42.714;23.274;2023-03-31T08:40:23;94583.91;;;15.87;41.79
21011;BME280;10663;42.714;23.274;2023-03-31T08:42:24;94564.47;;;16.08;42.01
21011;BME280;10663;42.714;23.274;2023-03-31T08:44:04;94566.97;;;16.05;41.67
21011;BME280;10663;42.714;23.274;2023-03-31T08:45:41;94562.59;;;16.76;41.07
21011;BME280;10663;42.714;23.274;2023-03-31T08:47:19;94565.81;;;17.17;39.76
21011;BME280;10663;42.714;23.274;2023-03-31T08:48:54;94573.00;;;16.77;39.38
21011;BME280;10663;42.714;23.274;2023-03-31T08:50:29;94562.97;;;16.83;40.07
21011;BME280;10663;42.714;23.274;2023-03-31T08:52:03;94569.53;;;16.32;40.78
21011;BME280;10663;42.714;23.274;2023-03-31T08:53:43;94561.28;;;16.42;41.05